sensor_id;sensor_type;location;lat;lon;timestamp;P1;durP1;ratioP1;P2;durP2;ratioP2
14903;SDS011;7543;53.148;8.234;2023-08-08T00:00:25;3.20;;;1.57;;
14903;SDS011;7543;53.148;8.234;2023-08-08T00:02:53;2.40;;;1.50;;
14903;SDS011;7543;53.148;8.234;2023-08-08T00:05:22;2.33;;;1.50;;
14903;SDS011;7543;53.148;8.234;2023-08-08T00:07:51;2.43;;;1.50;;
14903;SDS011;7543;53.148;8.234;2023-08-08T00:10:20;2.57;;;1.30;;
14903;SDS011;7543;53.148;8.234;2023-08-08T00:12:48;2.67;;;1.37;;
14903;SDS011;7543;53.148;8.234;2023-08-08T00:15:17;4.80;;;1.33;;
14903;SDS011;7543;53.148;8.234;2023-08-08T00:17:45;3.07;;;1.67;;
14903;SDS011;7543;53.148;8.234;2023-08-08T00:20:13;2.43;;;1.70;;
14903;SDS011;7543;53.148;8.234;2023-08-08T00:22:41;1.93;;;1.20;;
14903;SDS011;7543;53.148;8.234;2023-08-08T00:25:11;3.47;;;1.90;;
14903;SDS011;7543;53.148;8.234;2023-08-08T00:27:40;1.90;;;1.50;;
14903;SDS011;7543;53.148;8.234;2023-08-08T00:30:11;2.33;;;1.50;;
14903;SDS011;7543;53.148;8.234;2023-08-08T00:32:40;4.33;;;1.40;;
14903;SDS011;7543;53.148;8.234;2023-08-08T00:35:08;4.27;;;1.70;;
14903;SDS011;7543;53.148;8.234;2023-08-08T00:37:37;3.07;;;1.60;;
14903;SDS011;7543;53.148;8.234;2023-08-08T00:40:05;2.77;;;1.40;;
14903;SDS011;7543;53.148;8.234;2023-08-08T00:42:36;2.30;;;1.20;;
14903;SDS011;7543;53.148;8.234;2023-08-08T00:45:05;2.53;;;1.27;;
14903;SDS011;7543;53.148;8.234;2023-08-08T00:47:34;5.67;;;1.67;;
14903;SDS011;7543;53.148;8.234;2023-08-08T00:50:02;3.87;;;1.60;;
14903;SDS011;7543;53.148;8.234;2023-08-08T00:52:31;2.03;;;1.40;;
14903;SDS011;7543;53.148;8.234;2023-08-08T00:54:59;2.53;;;1.50;;
14903;SDS011;7543;53.148;8.234;2023-08-08T00:57:28;2.70;;;1.53;;
14903;SDS011;7543;53.148;8.234;2023-08-08T00:59:58;2.60;;;1.40;;
14903;SDS011;7543;53.148;8.234;2023-08-08T01:02:26;3.53;;;1.70;;
14903;SDS011;7543;53.148;8.234;2023-08-08T01:04:54;1.90;;;1.20;;
14903;SDS011;7543;53.148;8.234;2023-08-08T01:07:25;4.43;;;1.87;;
14903;SDS011;7543;53.148;8.234;2023-08-08T01:09:59;2.23;;;1.47;;
14903;SDS011;7543;53.148;8.234;2023-08-08T01:12:33;6.87;;;1.80;;
14903;SDS011;7543;53.148;8.234;2023-08-08T01:15:07;2.30;;;1.50;;
14903;SDS011;7543;53.148;8.234;2023-08-08T01:17:36;2.53;;;1.57;;
14903;SDS011;7543;53.148;8.234;2023-08-08T01:20:05;4.20;;;1.77;;
14903;SDS011;7543;53.148;8.234;2023-08-08T01:22:36;1.80;;;1.50;;
14903;SDS011;7543;53.148;8.234;2023-08-08T01:25:08;4.93;;;1.60;;
14903;SDS011;7543;53.148;8.234;2023-08-08T01:27:37;2.43;;;1.50;;
14903;SDS011;7543;53.148;8.234;2023-08-08T01:30:06;2.20;;;1.50;;
14903;SDS011;7543;53.148;8.234;2023-08-08T01:32:35;3.87;;;1.47;;
14903;SDS011;7543;53.148;8.234;2023-08-08T01:35:04;3.27;;;1.50;;
14903;SDS011;7543;53.148;8.234;2023-08-08T01:37:35;2.63;;;1.57;;
14903;SDS011;7543;53.148;8.234;2023-08-08T01:40:06;4.17;;;1.77;;
14903;SDS011;7543;53.148;8.234;2023-08-08T01:42:37;3.40;;;1.70;;
14903;SDS011;7543;53.148;8.234;2023-08-08T01:45:06;1.60;;;1.33;;
14903;SDS011;7543;53.148;8.234;2023-08-08T01:47:36;2.40;;;1.50;;
14903;SDS011;7543;53.148;8.234;2023-08-08T01:50:05;2.23;;;1.60;;
14903;SDS011;7543;53.148;8.234;2023-08-08T01:52:34;5.03;;;1.50;;
14903;SDS011;7543;53.148;8.234;2023-08-08T01:55:04;3.53;;;1.70;;
14903;SDS011;7543;53.148;8.234;2023-08-08T01:57:34;4.80;;;1.60;;
14903;SDS011;7543;53.148;8.234;2023-08-08T02:00:04;3.33;;;1.63;;
14903;SDS011;7543;53.148;8.234;2023-08-08T02:02:42;3.03;;;1.23;;
14903;SDS011;7543;53.148;8.234;2023-08-08T02:05:10;3.03;;;1.70;;
14903;SDS011;7543;53.148;8.234;2023-08-08T02:07:38;2.83;;;1.60;;
14903;SDS011;7543;53.148;8.234;2023-08-08T02:10:07;2.33;;;1.60;;
14903;SDS011;7543;53.148;8.234;2023-08-08T02:12:37;3.40;;;1.80;;
14903;SDS011;7543;53.148;8.234;2023-08-08T02:15:06;4.67;;;1.93;;
14903;SDS011;7543;53.148;8.234;2023-08-08T02:17:35;2.50;;;1.37;;
14903;SDS011;7543;53.148;8.234;2023-08-08T02:20:06;3.27;;;1.63;;
14903;SDS011;7543;53.148;8.234;2023-08-08T02:22:35;4.87;;;1.60;;
14903;SDS011;7543;53.148;8.234;2023-08-08T02:25:04;3.73;;;1.70;;
14903;SDS011;7543;53.148;8.234;2023-08-08T02:27:32;3.23;;;1.53;;
14903;SDS011;7543;53.148;8.234;2023-08-08T02:30:02;5.40;;;1.50;;
14903;SDS011;7543;53.148;8.234;2023-08-08T02:32:31;6.03;;;1.80;;
14903;SDS011;7543;53.148;8.234;2023-08-08T02:34:59;4.27;;;1.70;;
14903;SDS011;7543;53.148;8.234;2023-08-08T02:37:28;4.90;;;2.07;;
14903;SDS011;7543;53.148;8.234;2023-08-08T02:39:57;2.67;;;1.73;;
14903;SDS011;7543;53.148;8.234;2023-08-08T02:42:25;2.30;;;1.70;;
14903;SDS011;7543;53.148;8.234;2023-08-08T02:44:54;3.33;;;1.83;;
14903;SDS011;7543;53.148;8.234;2023-08-08T02:47:24;3.20;;;1.90;;
14903;SDS011;7543;53.148;8.234;2023-08-08T02:49:52;4.13;;;1.80;;
14903;SDS011;7543;53.148;8.234;2023-08-08T02:52:21;6.40;;;2.10;;
14903;SDS011;7543;53.148;8.234;2023-08-08T02:54:50;4.97;;;2.07;;
14903;SDS011;7543;53.148;8.234;2023-08-08T02:57:21;4.67;;;2.03;;
14903;SDS011;7543;53.148;8.234;2023-08-08T02:59:52;2.70;;;1.90;;
14903;SDS011;7543;53.148;8.234;2023-08-08T03:02:20;2.23;;;1.70;;
14903;SDS011;7543;53.148;8.234;2023-08-08T03:04:51;4.83;;;2.10;;
14903;SDS011;7543;53.148;8.234;2023-08-08T03:07:22;2.63;;;2.03;;
14903;SDS011;7543;53.148;8.234;2023-08-08T03:09:50;4.60;;;2.10;;
14903;SDS011;7543;53.148;8.234;2023-08-08T03:12:19;5.70;;;1.90;;
14903;SDS011;7543;53.148;8.234;2023-08-08T03:14:47;2.67;;;1.90;;
14903;SDS011;7543;53.148;8.234;2023-08-08T03:17:16;2.27;;;1.53;;
14903;SDS011;7543;53.148;8.234;2023-08-08T03:19:45;3.00;;;2.13;;
14903;SDS011;7543;53.148;8.234;2023-08-08T03:22:16;4.90;;;2.40;;
14903;SDS011;7543;53.148;8.234;2023-08-08T03:24:45;3.07;;;1.90;;
14903;SDS011;7543;53.148;8.234;2023-08-08T03:27:13;4.03;;;2.17;;
14903;SDS011;7543;53.148;8.234;2023-08-08T03:29:43;2.60;;;1.77;;
14903;SDS011;7543;53.148;8.234;2023-08-08T03:32:11;2.80;;;1.77;;
14903;SDS011;7543;53.148;8.234;2023-08-08T03:34:40;2.83;;;1.80;;
14903;SDS011;7543;53.148;8.234;2023-08-08T03:37:08;3.97;;;2.03;;
14903;SDS011;7543;53.148;8.234;2023-08-08T03:39:38;4.23;;;2.00;;
14903;SDS011;7543;53.148;8.234;2023-08-08T03:42:07;2.73;;;1.90;;
14903;SDS011;7543;53.148;8.234;2023-08-08T03:44:36;2.33;;;1.90;;
14903;SDS011;7543;53.148;8.234;2023-08-08T03:47:04;4.17;;;2.03;;
14903;SDS011;7543;53.148;8.234;2023-08-08T03:49:33;3.90;;;1.73;;
14903;SDS011;7543;53.148;8.234;2023-08-08T03:52:01;4.83;;;1.80;;
14903;SDS011;7543;53.148;8.234;2023-08-08T03:54:30;4.40;;;1.90;;
14903;SDS011;7543;53.148;8.234;2023-08-08T03:57:00;2.10;;;1.63;;
14903;SDS011;7543;53.148;8.234;2023-08-08T03:59:29;2.53;;;1.70;;
14903;SDS011;7543;53.148;8.234;2023-08-08T04:01:57;4.20;;;1.97;;
14903;SDS011;7543;53.148;8.234;2023-08-08T04:04:25;3.50;;;2.10;;
14903;SDS011;7543;53.148;8.234;2023-08-08T04:06:54;5.93;;;2.30;;
14903;SDS011;7543;53.148;8.234;2023-08-08T04:09:22;3.07;;;1.90;;
14903;SDS011;7543;53.148;8.234;2023-08-08T04:11:50;2.73;;;2.27;;
14903;SDS011;7543;53.148;8.234;2023-08-08T04:14:20;3.27;;;1.90;;
14903;SDS011;7543;53.148;8.234;2023-08-08T04:16:49;6.43;;;1.83;;
14903;SDS011;7543;53.148;8.234;2023-08-08T04:19:17;4.37;;;2.13;;
14903;SDS011;7543;53.148;8.234;2023-08-08T04:21:45;5.90;;;2.00;;
14903;SDS011;7543;53.148;8.234;2023-08-08T04:24:14;4.57;;;1.70;;
14903;SDS011;7543;53.148;8.234;2023-08-08T04:26:42;5.83;;;1.90;;
14903;SDS011;7543;53.148;8.234;2023-08-08T04:29:10;5.23;;;1.93;;
14903;SDS011;7543;53.148;8.234;2023-08-08T04:31:40;3.20;;;1.60;;
14903;SDS011;7543;53.148;8.234;2023-08-08T04:34:09;2.13;;;1.77;;
14903;SDS011;7543;53.148;8.234;2023-08-08T04:36:37;3.27;;;2.00;;
14903;SDS011;7543;53.148;8.234;2023-08-08T04:39:05;2.87;;;1.70;;
14903;SDS011;7543;53.148;8.234;2023-08-08T04:41:34;2.00;;;1.60;;
14903;SDS011;7543;53.148;8.234;2023-08-08T04:44:02;3.27;;;2.00;;
14903;SDS011;7543;53.148;8.234;2023-08-08T04:46:31;3.00;;;2.03;;
14903;SDS011;7543;53.148;8.234;2023-08-08T04:49:01;3.63;;;1.70;;
14903;SDS011;7543;53.148;8.234;2023-08-08T04:51:29;3.57;;;2.00;;
14903;SDS011;7543;53.148;8.234;2023-08-08T04:53:57;4.20;;;1.60;;
14903;SDS011;7543;53.148;8.234;2023-08-08T04:56:26;5.00;;;1.97;;
14903;SDS011;7543;53.148;8.234;2023-08-08T04:58:55;2.00;;;1.57;;
14903;SDS011;7543;53.148;8.234;2023-08-08T05:01:23;2.80;;;1.70;;
14903;SDS011;7543;53.148;8.234;2023-08-08T05:03:51;2.27;;;1.63;;
14903;SDS011;7543;53.148;8.234;2023-08-08T05:06:21;2.97;;;1.87;;
14903;SDS011;7543;53.148;8.234;2023-08-08T05:08:51;3.73;;;1.70;;
14903;SDS011;7543;53.148;8.234;2023-08-08T05:11:20;2.70;;;1.50;;
14903;SDS011;7543;53.148;8.234;2023-08-08T05:13:48;4.17;;;1.73;;
14903;SDS011;7543;53.148;8.234;2023-08-08T05:16:20;4.37;;;1.73;;
14903;SDS011;7543;53.148;8.234;2023-08-08T05:18:49;2.93;;;1.73;;
14903;SDS011;7543;53.148;8.234;2023-08-08T05:21:17;3.57;;;1.70;;
14903;SDS011;7543;53.148;8.234;2023-08-08T05:23:48;4.73;;;1.70;;
14903;SDS011;7543;53.148;8.234;2023-08-08T05:26:16;2.20;;;1.70;;
14903;SDS011;7543;53.148;8.234;2023-08-08T05:28:44;3.87;;;1.80;;
14903;SDS011;7543;53.148;8.234;2023-08-08T05:31:13;4.40;;;1.90;;
14903;SDS011;7543;53.148;8.234;2023-08-08T05:33:41;2.93;;;1.70;;
14903;SDS011;7543;53.148;8.234;2023-08-08T05:36:09;2.10;;;1.30;;
14903;SDS011;7543;53.148;8.234;2023-08-08T05:38:38;4.90;;;1.77;;
14903;SDS011;7543;53.148;8.234;2023-08-08T05:41:09;1.83;;;1.30;;
14903;SDS011;7543;53.148;8.234;2023-08-08T05:43:37;5.67;;;1.90;;
14903;SDS011;7543;53.148;8.234;2023-08-08T05:46:05;3.87;;;1.90;;
14903;SDS011;7543;53.148;8.234;2023-08-08T05:48:33;2.63;;;1.60;;
14903;SDS011;7543;53.148;8.234;2023-08-08T05:51:02;3.27;;;1.80;;
14903;SDS011;7543;53.148;8.234;2023-08-08T05:53:31;4.70;;;1.67;;
14903;SDS011;7543;53.148;8.234;2023-08-08T05:56:00;3.30;;;1.40;;
14903;SDS011;7543;53.148;8.234;2023-08-08T05:58:29;4.00;;;1.43;;
14903;SDS011;7543;53.148;8.234;2023-08-08T06:00:58;2.50;;;1.57;;
14903;SDS011;7543;53.148;8.234;2023-08-08T06:03:26;3.50;;;1.13;;
14903;SDS011;7543;53.148;8.234;2023-08-08T06:05:55;4.60;;;1.57;;
14903;SDS011;7543;53.148;8.234;2023-08-08T06:08:23;3.00;;;1.70;;
14903;SDS011;7543;53.148;8.234;2023-08-08T06:10:51;4.87;;;1.70;;
14903;SDS011;7543;53.148;8.234;2023-08-08T06:13:19;1.90;;;1.33;;
14903;SDS011;7543;53.148;8.234;2023-08-08T06:15:49;6.37;;;1.70;;
14903;SDS011;7543;53.148;8.234;2023-08-08T06:18:17;8.10;;;1.50;;
14903;SDS011;7543;53.148;8.234;2023-08-08T06:20:46;5.40;;;1.53;;
14903;SDS011;7543;53.148;8.234;2023-08-08T06:23:14;2.60;;;1.40;;
14903;SDS011;7543;53.148;8.234;2023-08-08T06:25:42;2.07;;;1.20;;
14903;SDS011;7543;53.148;8.234;2023-08-08T06:28:11;3.63;;;1.80;;
14903;SDS011;7543;53.148;8.234;2023-08-08T06:30:39;3.93;;;1.10;;
14903;SDS011;7543;53.148;8.234;2023-08-08T06:33:10;6.17;;;1.73;;
14903;SDS011;7543;53.148;8.234;2023-08-08T06:35:38;2.30;;;1.30;;
14903;SDS011;7543;53.148;8.234;2023-08-08T06:38:06;5.23;;;1.20;;
14903;SDS011;7543;53.148;8.234;2023-08-08T06:40:36;5.27;;;1.30;;
14903;SDS011;7543;53.148;8.234;2023-08-08T06:43:05;1.60;;;1.03;;
14903;SDS011;7543;53.148;8.234;2023-08-08T06:45:33;3.87;;;1.00;;
14903;SDS011;7543;53.148;8.234;2023-08-08T06:48:01;3.20;;;1.10;;
14903;SDS011;7543;53.148;8.234;2023-08-08T06:50:31;2.33;;;1.27;;
14903;SDS011;7543;53.148;8.234;2023-08-08T06:52:59;3.00;;;1.30;;
14903;SDS011;7543;53.148;8.234;2023-08-08T06:55:28;2.40;;;1.23;;
14903;SDS011;7543;53.148;8.234;2023-08-08T06:57:56;4.20;;;1.20;;
14903;SDS011;7543;53.148;8.234;2023-08-08T07:00:24;4.87;;;1.10;;
14903;SDS011;7543;53.148;8.234;2023-08-08T07:02:54;1.90;;;0.80;;
14903;SDS011;7543;53.148;8.234;2023-08-08T07:05:22;2.53;;;1.23;;
14903;SDS011;7543;53.148;8.234;2023-08-08T07:07:52;2.20;;;1.17;;
14903;SDS011;7543;53.148;8.234;2023-08-08T07:10:20;2.23;;;1.20;;
14903;SDS011;7543;53.148;8.234;2023-08-08T07:12:49;5.10;;;1.17;;
14903;SDS011;7543;53.148;8.234;2023-08-08T07:15:18;2.70;;;1.10;;
14903;SDS011;7543;53.148;8.234;2023-08-08T07:17:47;2.90;;;1.00;;
14903;SDS011;7543;53.148;8.234;2023-08-08T07:20:16;3.43;;;0.93;;
14903;SDS011;7543;53.148;8.234;2023-08-08T07:22:44;3.07;;;1.20;;
14903;SDS011;7543;53.148;8.234;2023-08-08T07:25:14;3.47;;;1.10;;
14903;SDS011;7543;53.148;8.234;2023-08-08T07:27:42;2.33;;;1.30;;
14903;SDS011;7543;53.148;8.234;2023-08-08T07:30:11;3.17;;;1.40;;
14903;SDS011;7543;53.148;8.234;2023-08-08T07:32:40;4.43;;;1.30;;
14903;SDS011;7543;53.148;8.234;2023-08-08T07:35:08;3.50;;;1.10;;
14903;SDS011;7543;53.148;8.234;2023-08-08T07:37:37;3.13;;;1.10;;
14903;SDS011;7543;53.148;8.234;2023-08-08T07:40:13;6.63;;;1.53;;
14903;SDS011;7543;53.148;8.234;2023-08-08T07:42:44;2.30;;;0.90;;
14903;SDS011;7543;53.148;8.234;2023-08-08T07:45:12;1.57;;;0.90;;
14903;SDS011;7543;53.148;8.234;2023-08-08T07:47:41;3.33;;;1.00;;
14903;SDS011;7543;53.148;8.234;2023-08-08T07:50:09;2.00;;;0.90;;
14903;SDS011;7543;53.148;8.234;2023-08-08T07:52:38;2.77;;;1.10;;
14903;SDS011;7543;53.148;8.234;2023-08-08T07:55:07;5.87;;;1.07;;
14903;SDS011;7543;53.148;8.234;2023-08-08T07:57:37;3.63;;;0.93;;
14903;SDS011;7543;53.148;8.234;2023-08-08T08:00:06;2.27;;;1.00;;
14903;SDS011;7543;53.148;8.234;2023-08-08T08:02:39;3.50;;;0.90;;
14903;SDS011;7543;53.148;8.234;2023-08-08T08:05:07;3.20;;;1.10;;
14903;SDS011;7543;53.148;8.234;2023-08-08T08:07:36;3.87;;;0.90;;
14903;SDS011;7543;53.148;8.234;2023-08-08T08:10:06;2.10;;;0.90;;
14903;SDS011;7543;53.148;8.234;2023-08-08T08:12:35;2.03;;;0.60;;
14903;SDS011;7543;53.148;8.234;2023-08-08T08:15:09;2.63;;;0.90;;
14903;SDS011;7543;53.148;8.234;2023-08-08T08:17:38;3.67;;;0.80;;
14903;SDS011;7543;53.148;8.234;2023-08-08T08:20:07;3.30;;;0.90;;
14903;SDS011;7543;53.148;8.234;2023-08-08T08:22:38;2.50;;;0.70;;
14903;SDS011;7543;53.148;8.234;2023-08-08T08:25:07;2.43;;;0.87;;
14903;SDS011;7543;53.148;8.234;2023-08-08T08:27:36;4.07;;;0.90;;
14903;SDS011;7543;53.148;8.234;2023-08-08T08:30:05;2.10;;;0.80;;
14903;SDS011;7543;53.148;8.234;2023-08-08T08:32:38;5.30;;;0.90;;
14903;SDS011;7543;53.148;8.234;2023-08-08T08:35:07;1.50;;;0.70;;
14903;SDS011;7543;53.148;8.234;2023-08-08T08:37:36;3.83;;;1.13;;
14903;SDS011;7543;53.148;8.234;2023-08-08T08:40:05;2.60;;;0.97;;
14903;SDS011;7543;53.148;8.234;2023-08-08T08:42:35;3.97;;;0.73;;
14903;SDS011;7543;53.148;8.234;2023-08-08T08:45:05;2.77;;;0.90;;
14903;SDS011;7543;53.148;8.234;2023-08-08T08:47:36;3.83;;;0.70;;
14903;SDS011;7543;53.148;8.234;2023-08-08T08:50:06;2.53;;;0.60;;
14903;SDS011;7543;53.148;8.234;2023-08-08T08:52:35;2.33;;;0.63;;
14903;SDS011;7543;53.148;8.234;2023-08-08T08:55:03;1.50;;;0.67;;
14903;SDS011;7543;53.148;8.234;2023-08-08T08:57:33;2.20;;;0.63;;
14903;SDS011;7543;53.148;8.234;2023-08-08T09:00:01;1.40;;;0.80;;
14903;SDS011;7543;53.148;8.234;2023-08-08T09:02:30;2.17;;;0.70;;
14903;SDS011;7543;53.148;8.234;2023-08-08T09:04:59;2.97;;;0.63;;
14903;SDS011;7543;53.148;8.234;2023-08-08T09:07:29;1.67;;;0.67;;
14903;SDS011;7543;53.148;8.234;2023-08-08T09:09:59;1.70;;;0.70;;
14903;SDS011;7543;53.148;8.234;2023-08-08T09:12:28;4.03;;;0.77;;
14903;SDS011;7543;53.148;8.234;2023-08-08T09:14:58;2.30;;;0.70;;
14903;SDS011;7543;53.148;8.234;2023-08-08T09:17:26;1.00;;;0.57;;
14903;SDS011;7543;53.148;8.234;2023-08-08T09:19:55;1.53;;;0.40;;
14903;SDS011;7543;53.148;8.234;2023-08-08T09:22:26;0.93;;;0.50;;
14903;SDS011;7543;53.148;8.234;2023-08-08T09:24:55;2.20;;;0.57;;
14903;SDS011;7543;53.148;8.234;2023-08-08T09:27:24;1.87;;;0.53;;
14903;SDS011;7543;53.148;8.234;2023-08-08T09:29:53;1.63;;;0.63;;
14903;SDS011;7543;53.148;8.234;2023-08-08T09:32:21;2.83;;;0.43;;
14903;SDS011;7543;53.148;8.234;2023-08-08T09:34:50;3.10;;;0.90;;
14903;SDS011;7543;53.148;8.234;2023-08-08T09:37:19;2.53;;;0.80;;
14903;SDS011;7543;53.148;8.234;2023-08-08T09:39:56;5.40;;;0.90;;
14903;SDS011;7543;53.148;8.234;2023-08-08T09:42:25;1.43;;;0.70;;
14903;SDS011;7543;53.148;8.234;2023-08-08T09:44:55;1.63;;;0.70;;
14903;SDS011;7543;53.148;8.234;2023-08-08T09:47:24;1.23;;;0.60;;
14903;SDS011;7543;53.148;8.234;2023-08-08T09:49:58;1.30;;;0.70;;
14903;SDS011;7543;53.148;8.234;2023-08-08T09:52:28;1.87;;;0.60;;
14903;SDS011;7543;53.148;8.234;2023-08-08T09:54:57;1.83;;;0.80;;
14903;SDS011;7543;53.148;8.234;2023-08-08T09:57:26;1.13;;;0.60;;
14903;SDS011;7543;53.148;8.234;2023-08-08T09:59:55;1.90;;;0.90;;
14903;SDS011;7543;53.148;8.234;2023-08-08T10:02:23;1.90;;;0.57;;
14903;SDS011;7543;53.148;8.234;2023-08-08T10:04:52;2.13;;;1.00;;
14903;SDS011;7543;53.148;8.234;2023-08-08T10:07:21;1.10;;;0.70;;
14903;SDS011;7543;53.148;8.234;2023-08-08T10:09:49;2.43;;;0.60;;
14903;SDS011;7543;53.148;8.234;2023-08-08T10:12:19;3.10;;;1.00;;
14903;SDS011;7543;53.148;8.234;2023-08-08T10:14:48;0.80;;;0.50;;
14903;SDS011;7543;53.148;8.234;2023-08-08T10:17:19;2.10;;;0.80;;
14903;SDS011;7543;53.148;8.234;2023-08-08T10:19:51;0.90;;;0.47;;
14903;SDS011;7543;53.148;8.234;2023-08-08T10:22:20;1.50;;;0.70;;
14903;SDS011;7543;53.148;8.234;2023-08-08T10:24:51;1.00;;;0.40;;
14903;SDS011;7543;53.148;8.234;2023-08-08T10:27:32;3.73;;;0.70;;
14903;SDS011;7543;53.148;8.234;2023-08-08T10:30:02;3.27;;;0.80;;
14903;SDS011;7543;53.148;8.234;2023-08-08T10:32:37;1.43;;;0.70;;
14903;SDS011;7543;53.148;8.234;2023-08-08T10:35:07;0.93;;;0.60;;
14903;SDS011;7543;53.148;8.234;2023-08-08T10:37:36;3.13;;;0.90;;
14903;SDS011;7543;53.148;8.234;2023-08-08T10:40:06;2.23;;;0.50;;
14903;SDS011;7543;53.148;8.234;2023-08-08T10:42:43;3.33;;;0.70;;
14903;SDS011;7543;53.148;8.234;2023-08-08T10:45:15;1.03;;;0.50;;
14903;SDS011;7543;53.148;8.234;2023-08-08T10:47:44;2.00;;;0.60;;
14903;SDS011;7543;53.148;8.234;2023-08-08T10:50:13;1.97;;;0.80;;
14903;SDS011;7543;53.148;8.234;2023-08-08T10:52:53;1.70;;;0.47;;
14903;SDS011;7543;53.148;8.234;2023-08-08T10:55:22;3.67;;;0.80;;
14903;SDS011;7543;53.148;8.234;2023-08-08T10:57:55;0.57;;;0.37;;
14903;SDS011;7543;53.148;8.234;2023-08-08T11:00:26;2.10;;;0.67;;
14903;SDS011;7543;53.148;8.234;2023-08-08T11:02:56;2.03;;;0.83;;
14903;SDS011;7543;53.148;8.234;2023-08-08T11:05:25;1.40;;;0.60;;
14903;SDS011;7543;53.148;8.234;2023-08-08T11:07:55;2.67;;;0.50;;
14903;SDS011;7543;53.148;8.234;2023-08-08T11:10:23;2.10;;;0.60;;
14903;SDS011;7543;53.148;8.234;2023-08-08T11:13:01;0.70;;;0.60;;
14903;SDS011;7543;53.148;8.234;2023-08-08T11:15:31;2.27;;;0.50;;
14903;SDS011;7543;53.148;8.234;2023-08-08T11:18:00;1.67;;;0.70;;
14903;SDS011;7543;53.148;8.234;2023-08-08T11:20:30;1.43;;;0.53;;
14903;SDS011;7543;53.148;8.234;2023-08-08T11:22:59;1.70;;;0.60;;
14903;SDS011;7543;53.148;8.234;2023-08-08T11:25:28;2.50;;;0.70;;
14903;SDS011;7543;53.148;8.234;2023-08-08T11:27:59;2.57;;;1.10;;
14903;SDS011;7543;53.148;8.234;2023-08-08T11:30:28;1.33;;;0.80;;
14903;SDS011;7543;53.148;8.234;2023-08-08T11:32:57;0.90;;;0.60;;
14903;SDS011;7543;53.148;8.234;2023-08-08T11:35:25;0.90;;;0.40;;
14903;SDS011;7543;53.148;8.234;2023-08-08T11:37:55;2.43;;;0.80;;
14903;SDS011;7543;53.148;8.234;2023-08-08T11:40:25;2.87;;;1.00;;
14903;SDS011;7543;53.148;8.234;2023-08-08T11:42:55;1.47;;;0.77;;
14903;SDS011;7543;53.148;8.234;2023-08-08T11:45:26;1.47;;;0.70;;
14903;SDS011;7543;53.148;8.234;2023-08-08T11:47:55;1.27;;;0.73;;
14903;SDS011;7543;53.148;8.234;2023-08-08T11:50:24;1.07;;;0.57;;
14903;SDS011;7543;53.148;8.234;2023-08-08T11:52:54;3.10;;;0.80;;
14903;SDS011;7543;53.148;8.234;2023-08-08T11:55:27;0.70;;;0.53;;
14903;SDS011;7543;53.148;8.234;2023-08-08T11:57:56;2.13;;;0.97;;
14903;SDS011;7543;53.148;8.234;2023-08-08T12:00:28;6.33;;;0.93;;
14903;SDS011;7543;53.148;8.234;2023-08-08T12:02:57;2.63;;;0.63;;
14903;SDS011;7543;53.148;8.234;2023-08-08T12:05:26;2.77;;;1.00;;
14903;SDS011;7543;53.148;8.234;2023-08-08T12:07:54;2.17;;;0.80;;
14903;SDS011;7543;53.148;8.234;2023-08-08T12:10:23;3.30;;;0.70;;
14903;SDS011;7543;53.148;8.234;2023-08-08T12:12:55;2.13;;;0.70;;
14903;SDS011;7543;53.148;8.234;2023-08-08T12:15:29;2.10;;;0.80;;
14903;SDS011;7543;53.148;8.234;2023-08-08T12:17:58;3.03;;;0.80;;
14903;SDS011;7543;53.148;8.234;2023-08-08T12:20:27;4.70;;;1.10;;
14903;SDS011;7543;53.148;8.234;2023-08-08T12:22:56;0.80;;;0.60;;
14903;SDS011;7543;53.148;8.234;2023-08-08T12:25:24;1.97;;;0.77;;
14903;SDS011;7543;53.148;8.234;2023-08-08T12:27:53;4.33;;;0.80;;
14903;SDS011;7543;53.148;8.234;2023-08-08T12:30:21;2.17;;;1.00;;
14903;SDS011;7543;53.148;8.234;2023-08-08T12:32:51;1.90;;;0.73;;
14903;SDS011;7543;53.148;8.234;2023-08-08T12:35:20;1.97;;;0.90;;
14903;SDS011;7543;53.148;8.234;2023-08-08T12:37:48;1.80;;;0.63;;
14903;SDS011;7543;53.148;8.234;2023-08-08T12:40:17;2.73;;;0.60;;
14903;SDS011;7543;53.148;8.234;2023-08-08T12:42:45;1.83;;;0.90;;
14903;SDS011;7543;53.148;8.234;2023-08-08T12:45:14;3.00;;;0.80;;
14903;SDS011;7543;53.148;8.234;2023-08-08T12:47:44;3.60;;;0.97;;
14903;SDS011;7543;53.148;8.234;2023-08-08T12:50:14;2.70;;;0.90;;
14903;SDS011;7543;53.148;8.234;2023-08-08T12:52:42;3.27;;;0.97;;
14903;SDS011;7543;53.148;8.234;2023-08-08T12:55:11;2.10;;;0.67;;
14903;SDS011;7543;53.148;8.234;2023-08-08T12:57:41;1.10;;;0.60;;
14903;SDS011;7543;53.148;8.234;2023-08-08T13:00:10;1.87;;;0.60;;
14903;SDS011;7543;53.148;8.234;2023-08-08T13:02:39;2.23;;;1.00;;
14903;SDS011;7543;53.148;8.234;2023-08-08T13:05:08;1.77;;;0.43;;
14903;SDS011;7543;53.148;8.234;2023-08-08T13:07:38;3.37;;;0.63;;
14903;SDS011;7543;53.148;8.234;2023-08-08T13:10:06;2.17;;;0.83;;
14903;SDS011;7543;53.148;8.234;2023-08-08T13:12:35;1.20;;;0.60;;
14903;SDS011;7543;53.148;8.234;2023-08-08T13:15:04;6.00;;;0.90;;
14903;SDS011;7543;53.148;8.234;2023-08-08T13:17:34;6.40;;;0.80;;
14903;SDS011;7543;53.148;8.234;2023-08-08T13:20:02;4.33;;;0.77;;
14903;SDS011;7543;53.148;8.234;2023-08-08T13:22:31;3.17;;;0.77;;
14903;SDS011;7543;53.148;8.234;2023-08-08T13:25:01;2.23;;;0.63;;
14903;SDS011;7543;53.148;8.234;2023-08-08T13:27:30;4.88;;;0.80;;
14903;SDS011;7543;53.148;8.234;2023-08-08T13:29:59;2.97;;;0.70;;
14903;SDS011;7543;53.148;8.234;2023-08-08T13:32:27;1.47;;;0.60;;
14903;SDS011;7543;53.148;8.234;2023-08-08T13:34:56;2.13;;;0.60;;
14903;SDS011;7543;53.148;8.234;2023-08-08T13:37:24;1.40;;;0.60;;
14903;SDS011;7543;53.148;8.234;2023-08-08T13:39:52;3.60;;;0.90;;
14903;SDS011;7543;53.148;8.234;2023-08-08T13:42:22;1.67;;;0.70;;
14903;SDS011;7543;53.148;8.234;2023-08-08T13:44:50;1.50;;;0.70;;
14903;SDS011;7543;53.148;8.234;2023-08-08T13:47:19;1.87;;;0.77;;
14903;SDS011;7543;53.148;8.234;2023-08-08T13:49:47;3.53;;;0.90;;
14903;SDS011;7543;53.148;8.234;2023-08-08T13:52:15;1.83;;;0.73;;
14903;SDS011;7543;53.148;8.234;2023-08-08T13:54:44;2.97;;;1.23;;
14903;SDS011;7543;53.148;8.234;2023-08-08T13:57:12;2.63;;;0.77;;
14903;SDS011;7543;53.148;8.234;2023-08-08T13:59:42;2.63;;;0.67;;
14903;SDS011;7543;53.148;8.234;2023-08-08T14:02:10;4.63;;;1.10;;
14903;SDS011;7543;53.148;8.234;2023-08-08T14:04:38;0.97;;;0.60;;
14903;SDS011;7543;53.148;8.234;2023-08-08T14:07:07;3.27;;;1.03;;
14903;SDS011;7543;53.148;8.234;2023-08-08T14:09:35;2.20;;;0.60;;
14903;SDS011;7543;53.148;8.234;2023-08-08T14:12:04;1.77;;;0.67;;
14903;SDS011;7543;53.148;8.234;2023-08-08T14:14:32;3.10;;;0.80;;
14903;SDS011;7543;53.148;8.234;2023-08-08T14:17:02;1.97;;;0.60;;
14903;SDS011;7543;53.148;8.234;2023-08-08T14:19:31;1.50;;;0.70;;
14903;SDS011;7543;53.148;8.234;2023-08-08T14:21:59;4.17;;;0.60;;
14903;SDS011;7543;53.148;8.234;2023-08-08T14:24:27;2.23;;;1.13;;
14903;SDS011;7543;53.148;8.234;2023-08-08T14:26:56;2.70;;;0.87;;
14903;SDS011;7543;53.148;8.234;2023-08-08T14:29:24;0.97;;;0.50;;
14903;SDS011;7543;53.148;8.234;2023-08-08T14:31:52;2.90;;;0.70;;
14903;SDS011;7543;53.148;8.234;2023-08-08T14:34:29;1.70;;;0.77;;
14903;SDS011;7543;53.148;8.234;2023-08-08T14:36:58;1.97;;;0.70;;
14903;SDS011;7543;53.148;8.234;2023-08-08T14:39:28;2.17;;;0.80;;
14903;SDS011;7543;53.148;8.234;2023-08-08T14:41:59;3.27;;;0.70;;
14903;SDS011;7543;53.148;8.234;2023-08-08T14:44:29;2.23;;;0.70;;
14903;SDS011;7543;53.148;8.234;2023-08-08T14:46:57;3.00;;;1.10;;
14903;SDS011;7543;53.148;8.234;2023-08-08T14:49:26;1.77;;;0.77;;
14903;SDS011;7543;53.148;8.234;2023-08-08T14:51:55;1.77;;;0.87;;
14903;SDS011;7543;53.148;8.234;2023-08-08T14:54:24;2.13;;;0.70;;
14903;SDS011;7543;53.148;8.234;2023-08-08T14:56:52;2.67;;;0.80;;
14903;SDS011;7543;53.148;8.234;2023-08-08T14:59:21;3.67;;;0.80;;
14903;SDS011;7543;53.148;8.234;2023-08-08T15:01:50;2.73;;;0.73;;
14903;SDS011;7543;53.148;8.234;2023-08-08T15:04:18;1.30;;;0.63;;
14903;SDS011;7543;53.148;8.234;2023-08-08T15:06:47;2.70;;;0.70;;
14903;SDS011;7543;53.148;8.234;2023-08-08T15:09:17;4.67;;;0.93;;
14903;SDS011;7543;53.148;8.234;2023-08-08T15:11:45;1.53;;;0.77;;